sensor_id;sensor_type;location;lat;lon;timestamp;pressure;altitude;pressure_sealevel;temperature;humidity
32131;BME280;18639;50.716;7.086;2023-08-01T00:02:00;98818.22;;;17.25;100.00
32131;BME280;18639;50.716;7.086;2023-08-01T00:04:26;98813.38;;;17.22;100.00
32131;BME280;18639;50.716;7.086;2023-08-01T00:06:51;98810.41;;;17.25;100.00
32131;BME280;18639;50.716;7.086;2023-08-01T00:09:16;98816.25;;;17.27;100.00
32131;BME280;18639;50.716;7.086;2023-08-01T00:11:42;98808.44;;;17.27;100.00
32131;BME280;18639;50.716;7.086;2023-08-01T00:14:07;98779.72;;;17.13;100.00
32131;BME280;18639;50.716;7.086;2023-08-01T00:16:32;98756.81;;;17.15;100.00
32131;BME280;18639;50.716;7.086;2023-08-01T00:18:57;98772.69;;;17.28;100.00
32131;BME280;18639;50.716;7.086;2023-08-01T00:21:23;98749.09;;;17.21;100.00
32131;BME280;18639;50.716;7.086;2023-08-01T00:23:48;98737.03;;;17.20;100.00
32131;BME280;18639;50.716;7.086;2023-08-01T00:26:13;98726.31;;;17.15;100.00
32131;BME280;18639;50.716;7.086;2023-08-01T00:28:39;98723.81;;;17.07;100.00
32131;BME280;18639;50.716;7.086;2023-08-01T00:31:05;98762.25;;;17.13;100.00
32131;BME280;18639;50.716;7.086;2023-08-01T00:33:32;98773.31;;;17.15;100.00
32131;BME280;18639;50.716;7.086;2023-08-01T00:35:57;98732.69;;;16.83;100.00
32131;BME280;18639;50.716;7.086;2023-08-01T00:38:23;98769.59;;;17.10;100.00
32131;BME280;18639;50.716;7.086;2023-08-01T00:40:48;98772.06;;;17.11;100.00
32131;BME280;18639;50.716;7.086;2023-08-01T00:43:15;98751.44;;;17.02;100.00
32131;BME280;18639;50.716;7.086;2023-08-01T00:45:40;98751.88;;;17.05;100.00
32131;BME280;18639;50.716;7.086;2023-08-01T00:48:05;98747.03;;;17.02;100.00
32131;BME280;18639;50.716;7.086;2023-08-01T00:50:31;98736.59;;;17.02;100.00
32131;BME280;18639;50.716;7.086;2023-08-01T00:52:56;98750.19;;;17.12;100.00
32131;BME280;18639;50.716;7.086;2023-08-01T00:55:22;98753.59;;;17.13;100.00
32131;BME280;18639;50.716;7.086;2023-08-01T00:57:48;98731.00;;;17.05;100.00
32131;BME280;18639;50.716;7.086;2023-08-01T01:00:13;98756.03;;;17.14;100.00
32131;BME280;18639;50.716;7.086;2023-08-01T01:02:39;98747.47;;;17.06;100.00
32131;BME280;18639;50.716;7.086;2023-08-01T01:05:05;98743.72;;;17.08;100.00
32131;BME280;18639;50.716;7.086;2023-08-01T01:07:31;98720.94;;;17.02;100.00
32131;BME280;18639;50.716;7.086;2023-08-01T01:09:57;98723.38;;;17.04;100.00
32131;BME280;18639;50.716;7.086;2023-08-01T01:12:23;98695.56;;;16.96;100.00
32131;BME280;18639;50.716;7.086;2023-08-01T01:14:49;98726.16;;;17.17;100.00
32131;BME280;18639;50.716;7.086;2023-08-01T01:17:14;98684.66;;;17.07;100.00
32131;BME280;18639;50.716;7.086;2023-08-01T01:19:39;98677.34;;;16.88;100.00
32131;BME280;18639;50.716;7.086;2023-08-01T01:22:06;98704.63;;;17.15;100.00
32131;BME280;18639;50.716;7.086;2023-08-01T01:24:33;98680.59;;;17.05;100.00
32131;BME280;18639;50.716;7.086;2023-08-01T01:27:00;98697.44;;;17.17;100.00
32131;BME280;18639;50.716;7.086;2023-08-01T01:29:29;98695.81;;;17.16;100.00
32131;BME280;18639;50.716;7.086;2023-08-01T01:31:55;98673.22;;;17.08;100.00
32131;BME280;18639;50.716;7.086;2023-08-01T01:34:21;98679.69;;;17.12;100.00
32131;BME280;18639;50.716;7.086;2023-08-01T01:36:47;98649.47;;;17.03;100.00
32131;BME280;18639;50.716;7.086;2023-08-01T01:39:12;98666.47;;;17.14;100.00
32131;BME280;18639;50.716;7.086;2023-08-01T01:41:37;98653.97;;;17.09;100.00
32131;BME280;18639;50.716;7.086;2023-08-01T01:44:03;98663.88;;;17.14;100.00
32131;BME280;18639;50.716;7.086;2023-08-01T01:46:28;98667.19;;;17.08;100.00
32131;BME280;18639;50.716;7.086;2023-08-01T01:48:53;98684.19;;;17.18;100.00
32131;BME280;18639;50.716;7.086;2023-08-01T01:51:20;98676.63;;;17.23;100.00
32131;BME280;18639;50.716;7.086;2023-08-01T01:53:45;98700.03;;;17.17;100.00
32131;BME280;18639;50.716;7.086;2023-08-01T01:56:11;98657.03;;;16.98;100.00
32131;BME280;18639;50.716;7.086;2023-08-01T01:58:36;98657.75;;;16.92;100.00
32131;BME280;18639;50.716;7.086;2023-08-01T02:01:01;98665.94;;;16.89;100.00
32131;BME280;18639;50.716;7.086;2023-08-01T02:03:27;98615.72;;;16.58;100.00
32131;BME280;18639;50.716;7.086;2023-08-01T02:05:52;98692.13;;;16.96;100.00
32131;BME280;18639;50.716;7.086;2023-08-01T02:08:17;98667.00;;;16.95;100.00
32131;BME280;18639;50.716;7.086;2023-08-01T02:10:42;98649.66;;;16.87;100.00
32131;BME280;18639;50.716;7.086;2023-08-01T02:13:08;98617.00;;;16.62;100.00
32131;BME280;18639;50.716;7.086;2023-08-01T02:15:34;98623.75;;;16.71;100.00
32131;BME280;18639;50.716;7.086;2023-08-01T02:17:59;98622.94;;;16.70;100.00
32131;BME280;18639;50.716;7.086;2023-08-01T02:20:24;98686.19;;;17.02;100.00
32131;BME280;18639;50.716;7.086;2023-08-01T02:22:50;98643.44;;;16.73;100.00
32131;BME280;18639;50.716;7.086;2023-08-01T02:25:15;98689.63;;;17.02;100.00
32131;BME280;18639;50.716;7.086;2023-08-01T02:27:40;98692.22;;;17.02;100.00
32131;BME280;18639;50.716;7.086;2023-08-01T02:30:06;98688.25;;;17.06;100.00
32131;BME280;18639;50.716;7.086;2023-08-01T02:32:31;98685.56;;;17.00;100.00
32131;BME280;18639;50.716;7.086;2023-08-01T02:34:57;98688.44;;;17.05;100.00
32131;BME280;18639;50.716;7.086;2023-08-01T02:37:22;98689.44;;;17.04;100.00
32131;BME280;18639;50.716;7.086;2023-08-01T02:39:47;98683.41;;;17.03;100.00
32131;BME280;18639;50.716;7.086;2023-08-01T02:42:12;98696.09;;;17.06;100.00
32131;BME280;18639;50.716;7.086;2023-08-01T02:44:38;98646.88;;;16.74;100.00
32131;BME280;18639;50.716;7.086;2023-08-01T02:47:03;98705.28;;;17.02;100.00
32131;BME280;18639;50.716;7.086;2023-08-01T02:49:28;98699.84;;;16.89;100.00
32131;BME280;18639;50.716;7.086;2023-08-01T02:51:54;98674.56;;;16.60;100.00
32131;BME280;18639;50.716;7.086;2023-08-01T02:54:19;98716.44;;;16.81;100.00
32131;BME280;18639;50.716;7.086;2023-08-01T02:56:44;98700.41;;;16.70;100.00
32131;BME280;18639;50.716;7.086;2023-08-01T02:59:10;98718.28;;;16.73;100.00
32131;BME280;18639;50.716;7.086;2023-08-01T03:01:37;98722.78;;;16.64;100.00
32131;BME280;18639;50.716;7.086;2023-08-01T03:04:04;98721.16;;;16.63;100.00
32131;BME280;18639;50.716;7.086;2023-08-01T03:06:30;98712.38;;;16.56;100.00
32131;BME280;18639;50.716;7.086;2023-08-01T03:08:55;98704.38;;;16.43;100.00
32131;BME280;18639;50.716;7.086;2023-08-01T03:11:21;98682.13;;;16.32;100.00
32131;BME280;18639;50.716;7.086;2023-08-01T03:13:46;98683.00;;;16.25;100.00
32131;BME280;18639;50.716;7.086;2023-08-01T03:16:11;98702.72;;;16.27;100.00
32131;BME280;18639;50.716;7.086;2023-08-01T03:18:36;98681.47;;;15.93;100.00
32131;BME280;18639;50.716;7.086;2023-08-01T03:21:02;98721.41;;;16.08;100.00
32131;BME280;18639;50.716;7.086;2023-08-01T03:23:29;98726.28;;;16.11;100.00
32131;BME280;18639;50.716;7.086;2023-08-01T03:25:54;98723.16;;;15.93;100.00
32131;BME280;18639;50.716;7.086;2023-08-01T03:28:19;98699.50;;;15.72;100.00
32131;BME280;18639;50.716;7.086;2023-08-01T03:30:45;98715.94;;;15.72;100.00
32131;BME280;18639;50.716;7.086;2023-08-01T03:33:10;98728.34;;;15.70;100.00
32131;BME280;18639;50.716;7.086;2023-08-01T03:35:35;98718.19;;;15.52;100.00
32131;BME280;18639;50.716;7.086;2023-08-01T03:38:01;98722.06;;;15.56;100.00
32131;BME280;18639;50.716;7.086;2023-08-01T03:40:26;98736.66;;;15.66;100.00
32131;BME280;18639;50.716;7.086;2023-08-01T03:42:51;98729.34;;;15.61;100.00
32131;BME280;18639;50.716;7.086;2023-08-01T03:45:16;98732.00;;;15.53;100.00
32131;BME280;18639;50.716;7.086;2023-08-01T03:47:42;98708.13;;;15.41;100.00
32131;BME280;18639;50.716;7.086;2023-08-01T03:50:07;98744.16;;;15.61;100.00
32131;BME280;18639;50.716;7.086;2023-08-01T03:52:33;98730.72;;;15.49;100.00
32131;BME280;18639;50.716;7.086;2023-08-01T03:54:58;98727.91;;;15.50;100.00
32131;BME280;18639;50.716;7.086;2023-08-01T03:57:23;98731.84;;;15.46;100.00
32131;BME280;18639;50.716;7.086;2023-08-01T03:59:48;98763.88;;;15.63;100.00
32131;BME280;18639;50.716;7.086;2023-08-01T04:02:14;98723.22;;;15.46;100.00
32131;BME280;18639;50.716;7.086;2023-08-01T04:04:39;98752.16;;;15.59;100.00
32131;BME280;18639;50.716;7.086;2023-08-01T04:07:04;98756.25;;;15.53;100.00
32131;BME280;18639;50.716;7.086;2023-08-01T04:09:30;98780.31;;;15.64;100.00
32131;BME280;18639;50.716;7.086;2023-08-01T04:11:55;98763.72;;;15.56;100.00
32131;BME280;18639;50.716;7.086;2023-08-01T04:14:20;98769.22;;;15.62;100.00
32131;BME280;18639;50.716;7.086;2023-08-01T04:16:45;98745.22;;;15.43;100.00
32131;BME280;18639;50.716;7.086;2023-08-01T04:19:11;98765.13;;;15.67;100.00
32131;BME280;18639;50.716;7.086;2023-08-01T04:21:36;98744.88;;;15.46;100.00
32131;BME280;18639;50.716;7.086;2023-08-01T04:24:01;98769.91;;;15.55;100.00
32131;BME280;18639;50.716;7.086;2023-08-01T04:26:27;98774.44;;;15.62;100.00
32131;BME280;18639;50.716;7.086;2023-08-01T04:28:52;98769.44;;;15.52;100.00
32131;BME280;18639;50.716;7.086;2023-08-01T04:31:17;98722.53;;;15.21;100.00
32131;BME280;18639;50.716;7.086;2023-08-01T04:33:43;98787.50;;;15.53;100.00
32131;BME280;18639;50.716;7.086;2023-08-01T04:36:08;98781.31;;;15.54;100.00
32131;BME280;18639;50.716;7.086;2023-08-01T04:38:34;98793.94;;;15.66;100.00
32131;BME280;18639;50.716;7.086;2023-08-01T04:40:59;98787.63;;;15.60;100.00
32131;BME280;18639;50.716;7.086;2023-08-01T04:43:26;98796.38;;;15.67;100.00
32131;BME280;18639;50.716;7.086;2023-08-01T04:45:51;98784.88;;;15.45;100.00
32131;BME280;18639;50.716;7.086;2023-08-01T04:48:16;98811.88;;;15.61;100.00
32131;BME280;18639;50.716;7.086;2023-08-01T04:50:42;98757.13;;;15.30;100.00
32131;BME280;18639;50.716;7.086;2023-08-01T04:53:07;98772.59;;;15.31;100.00
32131;BME280;18639;50.716;7.086;2023-08-01T04:55:32;98797.09;;;15.45;100.00
32131;BME280;18639;50.716;7.086;2023-08-01T04:57:58;98828.19;;;15.54;100.00
32131;BME280;18639;50.716;7.086;2023-08-01T05:00:23;98823.16;;;15.53;100.00
32131;BME280;18639;50.716;7.086;2023-08-01T05:02:48;98803.00;;;15.23;100.00
32131;BME280;18639;50.716;7.086;2023-08-01T05:05:14;98794.88;;;15.17;100.00
32131;BME280;18639;50.716;7.086;2023-08-01T05:07:41;98808.09;;;15.16;100.00
32131;BME280;18639;50.716;7.086;2023-08-01T05:10:06;98831.16;;;15.27;100.00
32131;BME280;18639;50.716;7.086;2023-08-01T05:12:32;98821.59;;;15.11;100.00
32131;BME280;18639;50.716;7.086;2023-08-01T05:14:57;98825.66;;;15.14;100.00
32131;BME280;18639;50.716;7.086;2023-08-01T05:17:22;98801.59;;;14.96;100.00
32131;BME280;18639;50.716;7.086;2023-08-01T05:19:48;98814.41;;;15.13;100.00
32131;BME280;18639;50.716;7.086;2023-08-01T05:22:13;98772.69;;;14.74;100.00
32131;BME280;18639;50.716;7.086;2023-08-01T05:24:38;98830.53;;;15.17;100.00
32131;BME280;18639;50.716;7.086;2023-08-01T05:27:04;98777.53;;;14.86;100.00
32131;BME280;18639;50.716;7.086;2023-08-01T05:29:29;98789.25;;;14.98;100.00
32131;BME280;18639;50.716;7.086;2023-08-01T05:31:55;98814.91;;;15.17;100.00
32131;BME280;18639;50.716;7.086;2023-08-01T05:34:20;98767.78;;;14.96;100.00
32131;BME280;18639;50.716;7.086;2023-08-01T05:36:45;98806.72;;;15.28;100.00
32131;BME280;18639;50.716;7.086;2023-08-01T05:39:10;98799.31;;;15.17;100.00
32131;BME280;18639;50.716;7.086;2023-08-01T05:41:36;98797.03;;;15.14;100.00
32131;BME280;18639;50.716;7.086;2023-08-01T05:44:02;98835.63;;;15.49;100.00
32131;BME280;18639;50.716;7.086;2023-08-01T05:46:27;98832.41;;;15.39;100.00
32131;BME280;18639;50.716;7.086;2023-08-01T05:48:53;98833.22;;;15.48;100.00
32131;BME280;18639;50.716;7.086;2023-08-01T05:51:18;98842.81;;;15.64;100.00
32131;BME280;18639;50.716;7.086;2023-08-01T05:53:43;98802.50;;;15.35;100.00
32131;BME280;18639;50.716;7.086;2023-08-01T05:56:08;98805.88;;;15.44;100.00
32131;BME280;18639;50.716;7.086;2023-08-01T05:58:34;98798.56;;;15.47;100.00
32131;BME280;18639;50.716;7.086;2023-08-01T06:00:59;98825.84;;;15.68;100.00
32131;BME280;18639;50.716;7.086;2023-08-01T06:03:24;98812.00;;;15.67;100.00
32131;BME280;18639;50.716;7.086;2023-08-01T06:05:50;98831.16;;;15.82;100.00
32131;BME280;18639;50.716;7.086;2023-08-01T06:08:15;98829.22;;;15.84;100.00
32131;BME280;18639;50.716;7.086;2023-08-01T06:10:41;98831.59;;;15.94;100.00
32131;BME280;18639;50.716;7.086;2023-08-01T06:13:07;98862.75;;;16.18;100.00
32131;BME280;18639;50.716;7.086;2023-08-01T06:15:32;98851.84;;;16.15;100.00
32131;BME280;18639;50.716;7.086;2023-08-01T06:17:58;98862.06;;;16.24;100.00
32131;BME280;18639;50.716;7.086;2023-08-01T06:20:23;98824.97;;;16.14;100.00
32131;BME280;18639;50.716;7.086;2023-08-01T06:22:48;98834.31;;;16.31;100.00
32131;BME280;18639;50.716;7.086;2023-08-01T06:25:14;98862.78;;;16.41;100.00
32131;BME280;18639;50.716;7.086;2023-08-01T06:27:39;98861.75;;;16.50;100.00
32131;BME280;18639;50.716;7.086;2023-08-01T06:30:05;98860.88;;;16.66;100.00
32131;BME280;18639;50.716;7.086;2023-08-01T06:32:31;98853.03;;;16.66;100.00
32131;BME280;18639;50.716;7.086;2023-08-01T06:34:56;98868.84;;;16.87;100.00
32131;BME280;18639;50.716;7.086;2023-08-01T06:37:21;98864.09;;;16.68;100.00
32131;BME280;18639;50.716;7.086;2023-08-01T06:39:46;98861.31;;;16.69;100.00
32131;BME280;18639;50.716;7.086;2023-08-01T06:42:12;98815.38;;;16.37;100.00
32131;BME280;18639;50.716;7.086;2023-08-01T06:44:37;98853.41;;;16.55;100.00
32131;BME280;18639;50.716;7.086;2023-08-01T06:47:03;98851.41;;;16.57;100.00
32131;BME280;18639;50.716;7.086;2023-08-01T06:49:28;98868.16;;;16.70;100.00
32131;BME280;18639;50.716;7.086;2023-08-01T06:51:54;98858.13;;;16.59;100.00
32131;BME280;18639;50.716;7.086;2023-08-01T06:54:19;98847.34;;;16.62;100.00
32131;BME280;18639;50.716;7.086;2023-08-01T06:56:44;98836.91;;;16.62;100.00
32131;BME280;18639;50.716;7.086;2023-08-01T06:59:13;98854.94;;;16.72;100.00
32131;BME280;18639;50.716;7.086;2023-08-01T07:01:39;98844.72;;;16.85;100.00
32131;BME280;18639;50.716;7.086;2023-08-01T07:04:06;98818.50;;;16.78;100.00
32131;BME280;18639;50.716;7.086;2023-08-01T07:06:31;98831.84;;;16.83;100.00
32131;BME280;18639;50.716;7.086;2023-08-01T07:08:56;98832.31;;;16.87;100.00
32131;BME280;18639;50.716;7.086;2023-08-01T07:11:23;98851.88;;;17.06;100.00
32131;BME280;18639;50.716;7.086;2023-08-01T07:13:48;98839.03;;;17.19;100.00
32131;BME280;18639;50.716;7.086;2023-08-01T07:16:13;98856.41;;;17.26;100.00
32131;BME280;18639;50.716;7.086;2023-08-01T07:18:39;98844.81;;;17.14;100.00
32131;BME280;18639;50.716;7.086;2023-08-01T07:21:05;98859.16;;;17.10;100.00
32131;BME280;18639;50.716;7.086;2023-08-01T07:23:31;98874.50;;;17.13;100.00
32131;BME280;18639;50.716;7.086;2023-08-01T07:25:56;98853.53;;;16.84;100.00
32131;BME280;18639;50.716;7.086;2023-08-01T07:28:22;98844.53;;;16.72;100.00
32131;BME280;18639;50.716;7.086;2023-08-01T07:30:47;98881.91;;;16.87;100.00
32131;BME280;18639;50.716;7.086;2023-08-01T07:33:12;98889.25;;;16.83;100.00
32131;BME280;18639;50.716;7.086;2023-08-01T07:35:37;98882.03;;;16.71;100.00
32131;BME280;18639;50.716;7.086;2023-08-01T07:38:03;98896.97;;;16.77;100.00
32131;BME280;18639;50.716;7.086;2023-08-01T07:40:28;98868.03;;;16.64;100.00
32131;BME280;18639;50.716;7.086;2023-08-01T07:42:54;98892.34;;;16.87;100.00
32131;BME280;18639;50.716;7.086;2023-08-01T07:45:19;98902.69;;;16.95;100.00
32131;BME280;18639;50.716;7.086;2023-08-01T07:47:45;98871.94;;;17.05;100.00
32131;BME280;18639;50.716;7.086;2023-08-01T07:50:10;98884.31;;;17.26;100.00
32131;BME280;18639;50.716;7.086;2023-08-01T07:52:36;98892.84;;;17.57;100.00
32131;BME280;18639;50.716;7.086;2023-08-01T07:55:01;98899.91;;;17.86;100.00
32131;BME280;18639;50.716;7.086;2023-08-01T07:57:26;98900.16;;;18.06;100.00
32131;BME280;18639;50.716;7.086;2023-08-01T07:59:51;98900.66;;;18.31;100.00
32131;BME280;18639;50.716;7.086;2023-08-01T08:02:17;98895.78;;;18.28;100.00
32131;BME280;18639;50.716;7.086;2023-08-01T08:04:42;98863.78;;;18.26;100.00
32131;BME280;18639;50.716;7.086;2023-08-01T08:07:07;98845.03;;;18.22;100.00
32131;BME280;18639;50.716;7.086;2023-08-01T08:09:32;98869.31;;;18.52;100.00
32131;BME280;18639;50.716;7.086;2023-08-01T08:11:58;98886.28;;;18.77;100.00
32131;BME280;18639;50.716;7.086;2023-08-01T08:14:23;98884.16;;;18.87;100.00
32131;BME280;18639;50.716;7.086;2023-08-01T08:16:49;98886.50;;;19.04;100.00
32131;BME280;18639;50.716;7.086;2023-08-01T08:19:15;98904.97;;;19.17;100.00
32131;BME280;18639;50.716;7.086;2023-08-01T08:21:40;98892.22;;;19.14;100.00
32131;BME280;18639;50.716;7.086;2023-08-01T08:24:05;98880.41;;;18.97;100.00
32131;BME280;18639;50.716;7.086;2023-08-01T08:26:31;98902.91;;;19.12;100.00
32131;BME280;18639;50.716;7.086;2023-08-01T08:28:59;98896.38;;;19.29;100.00
32131;BME280;18639;50.716;7.086;2023-08-01T08:31:24;98910.28;;;19.51;100.00
32131;BME280;18639;50.716;7.086;2023-08-01T08:33:50;98893.31;;;19.47;100.00
32131;BME280;18639;50.716;7.086;2023-08-01T08:36:15;98892.56;;;19.53;100.00
32131;BME280;18639;50.716;7.086;2023-08-01T08:38:40;98903.75;;;19.68;100.00
32131;BME280;18639;50.716;7.086;2023-08-01T08:41:11;98902.47;;;19.92;100.00
32131;BME280;18639;50.716;7.086;2023-08-01T08:43:39;98915.00;;;20.03;100.00
32131;BME280;18639;50.716;7.086;2023-08-01T08:46:05;98902.16;;;20.08;100.00
32131;BME280;18639;50.716;7.086;2023-08-01T08:48:31;98899.72;;;20.07;100.00
32131;BME280;18639;50.716;7.086;2023-08-01T08:50:58;98910.66;;;20.17;100.00
32131;BME280;18639;50.716;7.086;2023-08-01T08:53:25;98906.22;;;20.17;100.00
32131;BME280;18639;50.716;7.086;2023-08-01T08:55:50;98888.59;;;20.05;100.00
32131;BME280;18639;50.716;7.086;2023-08-01T08:58:16;98890.78;;;19.95;100.00
32131;BME280;18639;50.716;7.086;2023-08-01T09:00:43;98874.50;;;19.65;100.00
32131;BME280;18639;50.716;7.086;2023-08-01T09:03:08;98889.31;;;19.51;100.00
32131;BME280;18639;50.716;7.086;2023-08-01T09:05:48;98890.25;;;19.44;100.00
32131;BME280;18639;50.716;7.086;2023-08-01T09:08:19;98881.53;;;19.64;100.00
32131;BME280;18639;50.716;7.086;2023-08-01T09:10:45;98897.19;;;19.86;100.00
32131;BME280;18639;50.716;7.086;2023-08-01T09:13:11;98909.03;;;20.16;100.00
32131;BME280;18639;50.716;7.086;2023-08-01T09:15:36;98921.28;;;20.50;100.00
32131;BME280;18639;50.716;7.086;2023-08-01T09:18:06;98909.81;;;20.64;100.00
32131;BME280;18639;50.716;7.086;2023-08-01T09:20:43;98920.75;;;20.81;100.00
32131;BME280;18639;50.716;7.086;2023-08-01T09:23:09;98931.28;;;21.00;100.00
32131;BME280;18639;50.716;7.086;2023-08-01T09:25:36;98912.91;;;20.94;100.00
32131;BME280;18639;50.716;7.086;2023-08-01T09:28:01;98915.31;;;20.89;100.00
32131;BME280;18639;50.716;7.086;2023-08-01T09:30:29;98908.03;;;21.11;100.00
32131;BME280;18639;50.716;7.086;2023-08-01T09:32:56;98892.28;;;20.97;100.00
32131;BME280;18639;50.716;7.086;2023-08-01T09:35:22;98942.47;;;21.35;100.00
32131;BME280;18639;50.716;7.086;2023-08-01T09:37:49;98927.47;;;21.49;100.00
32131;BME280;18639;50.716;7.086;2023-08-01T09:40:14;98932.25;;;21.92;100.00
32131;BME280;18639;50.716;7.086;2023-08-01T09:42:42;98937.44;;;22.24;100.00
32131;BME280;18639;50.716;7.086;2023-08-01T09:45:17;98926.13;;;22.24;99.00
32131;BME280;18639;50.716;7.086;2023-08-01T09:47:44;98927.06;;;22.43;98.64
32131;BME280;18639;50.716;7.086;2023-08-01T09:50:10;98923.47;;;22.31;94.58
32131;BME280;18639;50.716;7.086;2023-08-01T09:52:40;98926.16;;;22.55;98.94
32131;BME280;18639;50.716;7.086;2023-08-01T09:55:05;98944.38;;;22.63;85.86
32131;BME280;18639;50.716;7.086;2023-08-01T09:57:31;98928.22;;;22.53;87.15
32131;BME280;18639;50.716;7.086;2023-08-01T09:59:57;98920.94;;;22.87;91.02
32131;BME280;18639;50.716;7.086;2023-08-01T10:02:25;98917.16;;;22.76;78.49
32131;BME280;18639;50.716;7.086;2023-08-01T10:04:53;98902.13;;;22.45;84.38
32131;BME280;18639;50.716;7.086;2023-08-01T10:07:24;98936.25;;;22.20;85.20
32131;BME280;18639;50.716;7.086;2023-08-01T10:09:53;98914.47;;;21.80;88.33
32131;BME280;18639;50.716;7.086;2023-08-01T10:12:19;98932.31;;;21.72;87.43
32131;BME280;18639;50.716;7.086;2023-08-01T10:14:46;98926.91;;;21.47;91.14
32131;BME280;18639;50.716;7.086;2023-08-01T10:17:12;98911.28;;;20.93;88.46
32131;BME280;18639;50.716;7.086;2023-08-01T10:19:37;98930.66;;;20.85;92.06
32131;BME280;18639;50.716;7.086;2023-08-01T10:22:04;98906.72;;;20.41;96.64
32131;BME280;18639;50.716;7.086;2023-08-01T10:24:31;98880.38;;;20.88;100.00
32131;BME280;18639;50.716;7.086;2023-08-01T10:26:57;98926.81;;;21.93;95.65
32131;BME280;18639;50.716;7.086;2023-08-01T10:29:34;98925.66;;;22.78;90.11
32131;BME280;18639;50.716;7.086;2023-08-01T10:31:59;98906.09;;;23.24;84.42
32131;BME280;18639;50.716;7.086;2023-08-01T10:34:25;98930.19;;;23.52;73.16
32131;BME280;18639;50.716;7.086;2023-08-01T10:36:57;98932.66;;;23.72;77.22
32131;BME280;18639;50.716;7.086;2023-08-01T10:39:23;98918.19;;;23.31;75.94
32131;BME280;18639;50.716;7.086;2023-08-01T10:41:57;98922.16;;;22.91;77.70
32131;BME280;18639;50.716;7.086;2023-08-01T10:44:23;98939.75;;;22.59;89.09
32131;BME280;18639;50.716;7.086;2023-08-01T10:46:50;98943.31;;;22.27;93.53
32131;BME280;18639;50.716;7.086;2023-08-01T10:49:17;98935.91;;;22.04;89.76
32131;BME280;18639;50.716;7.086;2023-08-01T10:51:44;98950.50;;;22.51;99.27
32131;BME280;18639;50.716;7.086;2023-08-01T10:54:20;98933.53;;;22.40;88.64
32131;BME280;18639;50.716;7.086;2023-08-01T10:56:46;98943.69;;;22.37;81.77
32131;BME280;18639;50.716;7.086;2023-08-01T10:59:13;98943.78;;;22.17;87.15
32131;BME280;18639;50.716;7.086;2023-08-01T11:01:47;98939.47;;;22.22;85.93
32131;BME280;18639;50.716;7.086;2023-08-01T11:04:14;98922.50;;;22.12;88.81
32131;BME280;18639;50.716;7.086;2023-08-01T11:06:48;98932.84;;;22.13;85.94
32131;BME280;18639;50.716;7.086;2023-08-01T11:09:24;98920.31;;;22.09;86.50
32131;BME280;18639;50.716;7.086;2023-08-01T11:11:52;98935.09;;;22.03;84.00
32131;BME280;18639;50.716;7.086;2023-08-01T11:14:25;98934.88;;;21.92;80.76
32131;BME280;18639;50.716;7.086;2023-08-01T11:16:51;98924.22;;;21.67;80.64
32131;BME280;18639;50.716;7.086;2023-08-01T11:19:20;98940.78;;;21.80;81.64
32131;BME280;18639;50.716;7.086;2023-08-01T11:21:46;98943.59;;;21.92;82.15
32131;BME280;18639;50.716;7.086;2023-08-01T11:24:11;98951.69;;;21.97;80.81
32131;BME280;18639;50.716;7.086;2023-08-01T11:26:42;98937.53;;;22.05;82.95
32131;BME280;18639;50.716;7.086;2023-08-01T11:29:07;98941.78;;;22.06;81.18
32131;BME280;18639;50.716;7.086;2023-08-01T11:31:32;98952.91;;;22.01;82.11
32131;BME280;18639;50.716;7.086;2023-08-01T11:33:58;98912.28;;;21.77;82.97
32131;BME280;18639;50.716;7.086;2023-08-01T11:36:28;98937.94;;;21.82;79.35
32131;BME280;18639;50.716;7.086;2023-08-01T11:38:56;98952.13;;;21.74;84.67
32131;BME280;18639;50.716;7.086;2023-08-01T11:41:23;98942.25;;;21.63;81.82
32131;BME280;18639;50.716;7.086;2023-08-01T11:43:48;98956.59;;;21.48;83.97
32131;BME280;18639;50.716;7.086;2023-08-01T11:46:13;98917.16;;;21.08;85.47
32131;BME280;18639;50.716;7.086;2023-08-01T11:48:39;98913.28;;;20.91;83.17
32131;BME280;18639;50.716;7.086;2023-08-01T11:51:18;98962.00;;;21.00;85.32
32131;BME280;18639;50.716;7.086;2023-08-01T11:53:43;98923.97;;;20.76;83.35
32131;BME280;18639;50.716;7.086;2023-08-01T11:56:20;98953.91;;;20.88;80.98
32131;BME280;18639;50.716;7.086;2023-08-01T11:58:45;98984.84;;;20.93;81.01
32131;BME280;18639;50.716;7.086;2023-08-01T12:01:12;98973.81;;;20.63;95.35
32131;BME280;18639;50.716;7.086;2023-08-01T12:03:49;98979.06;;;20.56;100.00
32131;BME280;18639;50.716;7.086;2023-08-01T12:06:16;98975.53;;;20.36;100.00
32131;BME280;18639;50.716;7.086;2023-08-01T12:08:42;98987.09;;;20.48;100.00
32131;BME280;18639;50.716;7.086;2023-08-01T12:11:22;98984.31;;;20.56;100.00
32131;BME280;18639;50.716;7.086;2023-08-01T12:14:02;98977.22;;;20.57;100.00
32131;BME280;18639;50.716;7.086;2023-08-01T12:16:28;98982.53;;;20.70;100.00
32131;BME280;18639;50.716;7.086;2023-08-01T12:18:53;98992.44;;;20.75;100.00
32131;BME280;18639;50.716;7.086;2023-08-01T12:21:19;98966.34;;;20.60;100.00
32131;BME280;18639;50.716;7.086;2023-08-01T12:23:44;98956.66;;;20.61;100.00
32131;BME280;18639;50.716;7.086;2023-08-01T12:26:09;98963.38;;;20.76;100.00
32131;BME280;18639;50.716;7.086;2023-08-01T12:28:35;98948.66;;;20.82;97.36
32131;BME280;18639;50.716;7.086;2023-08-01T12:31:01;98974.56;;;21.05;96.14
32131;BME280;18639;50.716;7.086;2023-08-01T12:33:26;98972.72;;;20.98;94.03
32131;BME280;18639;50.716;7.086;2023-08-01T12:35:51;98963.81;;;21.06;96.71
32131;BME280;18639;50.716;7.086;2023-08-01T12:38:17;98979.06;;;21.30;92.86
32131;BME280;18639;50.716;7.086;2023-08-01T12:40:42;98968.34;;;21.25;88.98
32131;BME280;18639;50.716;7.086;2023-08-01T12:43:07;98987.56;;;21.46;87.70
32131;BME280;18639;50.716;7.086;2023-08-01T12:45:33;98986.91;;;21.37;90.06
32131;BME280;18639;50.716;7.086;2023-08-01T12:47:58;98992.19;;;21.37;89.98